sensor_id;sensor_type;location;lat;lon;timestamp;temperature;humidity
47520;DHT22;33252;48.122;11.538;2023-04-24T00:01:47;11.10;99.90
47520;DHT22;33252;48.122;11.538;2023-04-24T00:04:13;11.10;99.90
47520;DHT22;33252;48.122;11.538;2023-04-24T00:06:42;11.10;99.90
47520;DHT22;33252;48.122;11.538;2023-04-24T00:09:09;11.10;99.90
47520;DHT22;33252;48.122;11.538;2023-04-24T00:11:35;11.00;99.90
47520;DHT22;33252;48.122;11.538;2023-04-24T00:14:01;11.10;99.90
47520;DHT22;33252;48.122;11.538;2023-04-24T00:16:27;11.00;99.90
47520;DHT22;33252;48.122;11.538;2023-04-24T00:18:53;11.00;99.90
47520;DHT22;33252;48.122;11.538;2023-04-24T00:21:19;10.90;99.90
47520;DHT22;33252;48.122;11.538;2023-04-24T00:23:46;10.90;99.90
47520;DHT22;33252;48.122;11.538;2023-04-24T00:26:11;10.90;99.90
47520;DHT22;33252;48.122;11.538;2023-04-24T00:28:37;10.90;99.90
47520;DHT22;33252;48.122;11.538;2023-04-24T00:31:03;10.90;99.90
47520;DHT22;33252;48.122;11.538;2023-04-24T00:33:28;10.90;99.90
47520;DHT22;33252;48.122;11.538;2023-04-24T00:35:54;10.80;99.90
47520;DHT22;33252;48.122;11.538;2023-04-24T00:38:19;10.90;99.90
47520;DHT22;33252;48.122;11.538;2023-04-24T00:40:45;10.70;99.90
47520;DHT22;33252;48.122;11.538;2023-04-24T00:43:12;10.70;99.90
47520;DHT22;33252;48.122;11.538;2023-04-24T00:45:38;10.70;99.90
47520;DHT22;33252;48.122;11.538;2023-04-24T00:48:04;10.80;99.90
47520;DHT22;33252;48.122;11.538;2023-04-24T00:50:30;10.70;99.90
47520;DHT22;33252;48.122;11.538;2023-04-24T00:52:56;10.50;99.90
47520;DHT22;33252;48.122;11.538;2023-04-24T00:55:22;10.50;99.90
47520;DHT22;33252;48.122;11.538;2023-04-24T00:57:48;10.50;99.90
47520;DHT22;33252;48.122;11.538;2023-04-24T01:00:15;10.60;99.90
47520;DHT22;33252;48.122;11.538;2023-04-24T01:02:44;10.60;99.90
47520;DHT22;33252;48.122;11.538;2023-04-24T01:05:14;10.70;99.90
47520;DHT22;33252;48.122;11.538;2023-04-24T01:07:45;10.60;99.90
47520;DHT22;33252;48.122;11.538;2023-04-24T01:10:13;10.50;99.90
47520;DHT22;33252;48.122;11.538;2023-04-24T01:12:39;10.60;99.90
47520;DHT22;33252;48.122;11.538;2023-04-24T01:15:06;10.60;99.90
47520;DHT22;33252;48.122;11.538;2023-04-24T01:17:32;10.50;99.90
47520;DHT22;33252;48.122;11.538;2023-04-24T01:19:59;10.40;99.90
47520;DHT22;33252;48.122;11.538;2023-04-24T01:22:26;10.30;99.90
47520;DHT22;33252;48.122;11.538;2023-04-24T01:24:52;10.30;99.90
47520;DHT22;33252;48.122;11.538;2023-04-24T01:27:18;10.40;99.90
47520;DHT22;33252;48.122;11.538;2023-04-24T01:29:45;10.40;99.90
47520;DHT22;33252;48.122;11.538;2023-04-24T01:32:11;10.40;99.90
47520;DHT22;33252;48.122;11.538;2023-04-24T01:34:37;10.30;99.90
47520;DHT22;33252;48.122;11.538;2023-04-24T01:37:03;10.20;99.90
47520;DHT22;33252;48.122;11.538;2023-04-24T01:39:30;10.30;99.90
47520;DHT22;33252;48.122;11.538;2023-04-24T01:41:56;10.20;99.90
47520;DHT22;33252;48.122;11.538;2023-04-24T01:44:22;10.20;99.90
47520;DHT22;33252;48.122;11.538;2023-04-24T01:46:48;10.20;99.90
47520;DHT22;33252;48.122;11.538;2023-04-24T01:49:14;10.30;99.90
47520;DHT22;33252;48.122;11.538;2023-04-24T01:51:39;10.20;99.90
47520;DHT22;33252;48.122;11.538;2023-04-24T01:54:05;10.10;99.90
47520;DHT22;33252;48.122;11.538;2023-04-24T01:56:33;10.20;99.90
47520;DHT22;33252;48.122;11.538;2023-04-24T01:59:02;10.30;99.90
47520;DHT22;33252;48.122;11.538;2023-04-24T02:01:34;10.30;99.90
47520;DHT22;33252;48.122;11.538;2023-04-24T02:04:01;10.30;99.90
47520;DHT22;33252;48.122;11.538;2023-04-24T02:06:27;10.10;99.90
47520;DHT22;33252;48.122;11.538;2023-04-24T02:08:53;10.10;99.90
47520;DHT22;33252;48.122;11.538;2023-04-24T02:11:18;10.10;99.90
47520;DHT22;33252;48.122;11.538;2023-04-24T02:13:44;10.00;99.90
47520;DHT22;33252;48.122;11.538;2023-04-24T02:16:10;10.20;99.90
47520;DHT22;33252;48.122;11.538;2023-04-24T02:18:36;10.10;99.90
47520;DHT22;33252;48.122;11.538;2023-04-24T02:21:02;10.20;99.90
47520;DHT22;33252;48.122;11.538;2023-04-24T02:23:27;10.10;99.90
47520;DHT22;33252;48.122;11.538;2023-04-24T02:25:54;10.10;99.90
47520;DHT22;33252;48.122;11.538;2023-04-24T02:28:20;9.90;99.90
47520;DHT22;33252;48.122;11.538;2023-04-24T02:30:45;10.10;99.90
47520;DHT22;33252;48.122;11.538;2023-04-24T02:33:11;10.10;99.90
47520;DHT22;33252;48.122;11.538;2023-04-24T02:35:37;10.10;99.90
47520;DHT22;33252;48.122;11.538;2023-04-24T02:38:03;10.10;99.90
47520;DHT22;33252;48.122;11.538;2023-04-24T02:40:29;10.30;99.90
47520;DHT22;33252;48.122;11.538;2023-04-24T02:42:55;10.10;99.90
47520;DHT22;33252;48.122;11.538;2023-04-24T02:45:21;10.20;99.90
47520;DHT22;33252;48.122;11.538;2023-04-24T02:47:46;10.20;99.90
47520;DHT22;33252;48.122;11.538;2023-04-24T02:50:12;10.10;99.90
47520;DHT22;33252;48.122;11.538;2023-04-24T02:52:38;10.10;99.90
47520;DHT22;33252;48.122;11.538;2023-04-24T02:55:04;10.10;99.90
47520;DHT22;33252;48.122;11.538;2023-04-24T02:57:29;9.90;99.90
47520;DHT22;33252;48.122;11.538;2023-04-24T02:59:55;10.10;99.90
47520;DHT22;33252;48.122;11.538;2023-04-24T03:02:21;10.10;99.90
47520;DHT22;33252;48.122;11.538;2023-04-24T03:04:46;10.10;99.90
47520;DHT22;33252;48.122;11.538;2023-04-24T03:07:14;10.00;99.90
47520;DHT22;33252;48.122;11.538;2023-04-24T03:09:40;10.00;99.90
47520;DHT22;33252;48.122;11.538;2023-04-24T03:12:06;9.90;99.90
47520;DHT22;33252;48.122;11.538;2023-04-24T03:14:32;9.80;99.90
47520;DHT22;33252;48.122;11.538;2023-04-24T03:16:57;9.90;99.90
47520;DHT22;33252;48.122;11.538;2023-04-24T03:19:23;9.80;99.90
47520;DHT22;33252;48.122;11.538;2023-04-24T03:21:49;9.80;99.90
47520;DHT22;33252;48.122;11.538;2023-04-24T03:24:15;9.80;99.90
47520;DHT22;33252;48.122;11.538;2023-04-24T03:26:41;9.80;99.90
47520;DHT22;33252;48.122;11.538;2023-04-24T03:29:06;9.70;99.90
47520;DHT22;33252;48.122;11.538;2023-04-24T03:31:32;9.70;99.90
47520;DHT22;33252;48.122;11.538;2023-04-24T03:33:58;9.70;99.90
47520;DHT22;33252;48.122;11.538;2023-04-24T03:36:23;9.80;99.90
47520;DHT22;33252;48.122;11.538;2023-04-24T03:38:49;9.80;99.90
47520;DHT22;33252;48.122;11.538;2023-04-24T03:41:15;9.60;99.90
47520;DHT22;33252;48.122;11.538;2023-04-24T03:43:41;9.60;99.90
47520;DHT22;33252;48.122;11.538;2023-04-24T03:46:06;9.60;99.90
47520;DHT22;33252;48.122;11.538;2023-04-24T03:48:34;9.60;99.90
47520;DHT22;33252;48.122;11.538;2023-04-24T03:51:01;9.60;99.90
47520;DHT22;33252;48.122;11.538;2023-04-24T03:53:26;9.70;99.90
47520;DHT22;33252;48.122;11.538;2023-04-24T03:55:53;9.70;99.90
47520;DHT22;33252;48.122;11.538;2023-04-24T03:58:19;9.70;99.90
47520;DHT22;33252;48.122;11.538;2023-04-24T04:00:44;9.60;99.90
47520;DHT22;33252;48.122;11.538;2023-04-24T04:03:12;9.60;99.90
47520;DHT22;33252;48.122;11.538;2023-04-24T04:05:39;9.60;99.90
47520;DHT22;33252;48.122;11.538;2023-04-24T04:08:04;9.70;99.90
47520;DHT22;33252;48.122;11.538;2023-04-24T04:10:30;9.70;99.90
47520;DHT22;33252;48.122;11.538;2023-04-24T04:12:56;9.70;99.90
47520;DHT22;33252;48.122;11.538;2023-04-24T04:15:21;9.60;99.90
47520;DHT22;33252;48.122;11.538;2023-04-24T04:17:47;9.70;99.90
47520;DHT22;33252;48.122;11.538;2023-04-24T04:20:13;9.70;99.90
47520;DHT22;33252;48.122;11.538;2023-04-24T04:22:39;9.70;99.90
47520;DHT22;33252;48.122;11.538;2023-04-24T04:25:05;9.70;99.90
47520;DHT22;33252;48.122;11.538;2023-04-24T04:27:30;9.50;99.90
47520;DHT22;33252;48.122;11.538;2023-04-24T04:30:00;9.60;99.90
47520;DHT22;33252;48.122;11.538;2023-04-24T04:32:31;9.60;99.90
47520;DHT22;33252;48.122;11.538;2023-04-24T04:34:58;9.60;99.90
47520;DHT22;33252;48.122;11.538;2023-04-24T04:37:31;9.60;99.90
47520;DHT22;33252;48.122;11.538;2023-04-24T04:39:58;9.60;99.90
47520;DHT22;33252;48.122;11.538;2023-04-24T04:42:25;9.60;99.90
47520;DHT22;33252;48.122;11.538;2023-04-24T04:44:52;9.50;99.90
47520;DHT22;33252;48.122;11.538;2023-04-24T04:47:19;9.60;99.90
47520;DHT22;33252;48.122;11.538;2023-04-24T04:49:47;9.60;99.90
47520;DHT22;33252;48.122;11.538;2023-04-24T04:52:13;9.60;99.90
47520;DHT22;33252;48.122;11.538;2023-04-24T04:54:39;9.50;99.90
47520;DHT22;33252;48.122;11.538;2023-04-24T04:57:05;9.50;99.90
47520;DHT22;33252;48.122;11.538;2023-04-24T04:59:31;9.30;99.90
47520;DHT22;33252;48.122;11.538;2023-04-24T05:01:56;9.50;99.90
47520;DHT22;33252;48.122;11.538;2023-04-24T05:04:22;9.50;99.90
47520;DHT22;33252;48.122;11.538;2023-04-24T05:06:47;9.40;99.90
47520;DHT22;33252;48.122;11.538;2023-04-24T05:09:13;9.50;99.90
47520;DHT22;33252;48.122;11.538;2023-04-24T05:11:39;9.40;99.90
47520;DHT22;33252;48.122;11.538;2023-04-24T05:14:05;9.40;99.90
47520;DHT22;33252;48.122;11.538;2023-04-24T05:16:30;9.40;99.90
47520;DHT22;33252;48.122;11.538;2023-04-24T05:18:56;9.40;99.90
47520;DHT22;33252;48.122;11.538;2023-04-24T05:21:22;9.60;99.90
47520;DHT22;33252;48.122;11.538;2023-04-24T05:23:48;9.70;99.90
47520;DHT22;33252;48.122;11.538;2023-04-24T05:26:14;9.60;99.90
47520;DHT22;33252;48.122;11.538;2023-04-24T05:28:40;9.70;99.90
47520;DHT22;33252;48.122;11.538;2023-04-24T05:31:06;9.60;99.90
47520;DHT22;33252;48.122;11.538;2023-04-24T05:33:32;9.70;99.90
47520;DHT22;33252;48.122;11.538;2023-04-24T05:35:57;9.80;99.90
47520;DHT22;33252;48.122;11.538;2023-04-24T05:38:23;9.70;99.90
47520;DHT22;33252;48.122;11.538;2023-04-24T05:40:49;9.70;99.90
47520;DHT22;33252;48.122;11.538;2023-04-24T05:43:14;9.60;99.90
47520;DHT22;33252;48.122;11.538;2023-04-24T05:45:40;9.60;99.90
47520;DHT22;33252;48.122;11.538;2023-04-24T05:48:06;9.60;99.90
47520;DHT22;33252;48.122;11.538;2023-04-24T05:50:31;9.60;99.90
47520;DHT22;33252;48.122;11.538;2023-04-24T05:52:57;9.60;99.90
47520;DHT22;33252;48.122;11.538;2023-04-24T05:55:27;9.70;99.90
47520;DHT22;33252;48.122;11.538;2023-04-24T05:57:53;9.70;99.90
47520;DHT22;33252;48.122;11.538;2023-04-24T06:00:19;9.70;99.90
47520;DHT22;33252;48.122;11.538;2023-04-24T06:02:46;9.80;99.90
47520;DHT22;33252;48.122;11.538;2023-04-24T06:05:12;9.90;99.90
47520;DHT22;33252;48.122;11.538;2023-04-24T06:07:38;9.90;99.90
47520;DHT22;33252;48.122;11.538;2023-04-24T06:10:04;9.90;99.90
47520;DHT22;33252;48.122;11.538;2023-04-24T06:12:30;9.90;99.90
47520;DHT22;33252;48.122;11.538;2023-04-24T06:14:56;10.00;99.90
47520;DHT22;33252;48.122;11.538;2023-04-24T06:17:22;10.10;99.90
47520;DHT22;33252;48.122;11.538;2023-04-24T06:19:47;10.10;99.90
47520;DHT22;33252;48.122;11.538;2023-04-24T06:22:13;10.00;99.90
47520;DHT22;33252;48.122;11.538;2023-04-24T06:24:40;10.10;99.90
47520;DHT22;33252;48.122;11.538;2023-04-24T06:27:06;10.10;99.90
47520;DHT22;33252;48.122;11.538;2023-04-24T06:29:33;10.10;99.90
47520;DHT22;33252;48.122;11.538;2023-04-24T06:31:59;10.10;99.90
47520;DHT22;33252;48.122;11.538;2023-04-24T06:34:25;10.10;99.90
47520;DHT22;33252;48.122;11.538;2023-04-24T06:36:50;10.20;99.90
47520;DHT22;33252;48.122;11.538;2023-04-24T06:39:16;10.20;99.90
47520;DHT22;33252;48.122;11.538;2023-04-24T06:41:42;10.30;99.90
47520;DHT22;33252;48.122;11.538;2023-04-24T06:44:07;10.40;99.90
47520;DHT22;33252;48.122;11.538;2023-04-24T06:46:33;10.20;99.90
47520;DHT22;33252;48.122;11.538;2023-04-24T06:49:00;10.40;99.90
47520;DHT22;33252;48.122;11.538;2023-04-24T06:51:26;10.30;99.90
47520;DHT22;33252;48.122;11.538;2023-04-24T06:53:55;10.50;99.90
47520;DHT22;33252;48.122;11.538;2023-04-24T06:56:24;10.30;99.90
47520;DHT22;33252;48.122;11.538;2023-04-24T06:58:50;10.30;99.90
47520;DHT22;33252;48.122;11.538;2023-04-24T07:01:16;10.50;99.90
47520;DHT22;33252;48.122;11.538;2023-04-24T07:03:42;10.50;99.90
47520;DHT22;33252;48.122;11.538;2023-04-24T07:06:08;10.60;99.90
47520;DHT22;33252;48.122;11.538;2023-04-24T07:08:34;10.60;99.90
47520;DHT22;33252;48.122;11.538;2023-04-24T07:11:01;10.70;99.90
47520;DHT22;33252;48.122;11.538;2023-04-24T07:13:27;10.80;99.90
47520;DHT22;33252;48.122;11.538;2023-04-24T07:15:53;10.80;99.90
47520;DHT22;33252;48.122;11.538;2023-04-24T07:18:20;10.60;99.90
47520;DHT22;33252;48.122;11.538;2023-04-24T07:20:46;10.70;99.90
47520;DHT22;33252;48.122;11.538;2023-04-24T07:23:12;10.90;99.90
47520;DHT22;33252;48.122;11.538;2023-04-24T07:25:38;10.70;99.90
47520;DHT22;33252;48.122;11.538;2023-04-24T07:28:04;10.60;99.90
47520;DHT22;33252;48.122;11.538;2023-04-24T07:30:31;10.80;99.90
47520;DHT22;33252;48.122;11.538;2023-04-24T07:32:58;10.90;99.90
47520;DHT22;33252;48.122;11.538;2023-04-24T07:35:24;10.90;99.90
47520;DHT22;33252;48.122;11.538;2023-04-24T07:37:53;10.90;99.90
47520;DHT22;33252;48.122;11.538;2023-04-24T07:40:19;11.00;99.90
47520;DHT22;33252;48.122;11.538;2023-04-24T07:42:45;10.90;99.90
47520;DHT22;33252;48.122;11.538;2023-04-24T07:45:13;11.00;99.90
47520;DHT22;33252;48.122;11.538;2023-04-24T07:47:41;10.90;99.90
47520;DHT22;33252;48.122;11.538;2023-04-24T07:50:09;10.90;99.90
47520;DHT22;33252;48.122;11.538;2023-04-24T07:52:35;10.70;99.90
47520;DHT22;33252;48.122;11.538;2023-04-24T07:55:01;10.80;99.90
47520;DHT22;33252;48.122;11.538;2023-04-24T07:57:28;10.90;99.90
47520;DHT22;33252;48.122;11.538;2023-04-24T07:59:54;10.90;99.90
47520;DHT22;33252;48.122;11.538;2023-04-24T08:02:20;10.80;99.90
47520;DHT22;33252;48.122;11.538;2023-04-24T08:04:54;10.60;99.90
47520;DHT22;33252;48.122;11.538;2023-04-24T08:07:20;10.90;99.90
47520;DHT22;33252;48.122;11.538;2023-04-24T08:09:46;10.80;99.90
47520;DHT22;33252;48.122;11.538;2023-04-24T08:12:11;10.80;99.90
47520;DHT22;33252;48.122;11.538;2023-04-24T08:14:37;11.00;99.90
47520;DHT22;33252;48.122;11.538;2023-04-24T08:17:03;11.10;99.90
47520;DHT22;33252;48.122;11.538;2023-04-24T08:19:28;11.20;99.90
47520;DHT22;33252;48.122;11.538;2023-04-24T08:21:54;11.20;99.90
47520;DHT22;33252;48.122;11.538;2023-04-24T08:24:20;11.10;99.90
47520;DHT22;33252;48.122;11.538;2023-04-24T08:26:46;10.90;99.90
47520;DHT22;33252;48.122;11.538;2023-04-24T08:29:12;10.80;99.90
47520;DHT22;33252;48.122;11.538;2023-04-24T08:31:37;10.70;99.90
47520;DHT22;33252;48.122;11.538;2023-04-24T08:34:03;10.70;99.90
47520;DHT22;33252;48.122;11.538;2023-04-24T08:36:29;10.70;99.90
47520;DHT22;33252;48.122;11.538;2023-04-24T08:38:55;10.60;99.90
47520;DHT22;33252;48.122;11.538;2023-04-24T08:41:21;10.30;99.90
47520;DHT22;33252;48.122;11.538;2023-04-24T08:43:51;9.90;99.90
47520;DHT22;33252;48.122;11.538;2023-04-24T08:46:19;9.90;99.90
47520;DHT22;33252;48.122;11.538;2023-04-24T08:48:45;10.00;99.90
47520;DHT22;33252;48.122;11.538;2023-04-24T08:51:11;10.10;99.90
47520;DHT22;33252;48.122;11.538;2023-04-24T08:53:37;10.00;99.90
47520;DHT22;33252;48.122;11.538;2023-04-24T08:56:03;10.20;99.90
47520;DHT22;33252;48.122;11.538;2023-04-24T08:58:31;10.10;99.90
47520;DHT22;33252;48.122;11.538;2023-04-24T09:00:58;10.10;99.90
47520;DHT22;33252;48.122;11.538;2023-04-24T09:03:24;10.10;99.90
47520;DHT22;33252;48.122;11.538;2023-04-24T09:05:52;10.20;99.90
47520;DHT22;33252;48.122;11.538;2023-04-24T09:08:20;10.10;99.90
47520;DHT22;33252;48.122;11.538;2023-04-24T09:10:47;10.00;99.90
47520;DHT22;33252;48.122;11.538;2023-04-24T09:13:13;9.90;99.90
47520;DHT22;33252;48.122;11.538;2023-04-24T09:15:40;9.90;99.90
47520;DHT22;33252;48.122;11.538;2023-04-24T09:18:06;10.10;99.90
47520;DHT22;33252;48.122;11.538;2023-04-24T09:20:32;10.30;99.90
47520;DHT22;33252;48.122;11.538;2023-04-24T09:22:59;10.20;99.90
47520;DHT22;33252;48.122;11.538;2023-04-24T09:25:32;10.30;99.90
47520;DHT22;33252;48.122;11.538;2023-04-24T09:28:03;10.30;99.90
47520;DHT22;33252;48.122;11.538;2023-04-24T09:30:29;10.30;99.90
47520;DHT22;33252;48.122;11.538;2023-04-24T09:33:14;10.30;99.90
47520;DHT22;33252;48.122;11.538;2023-04-24T09:35:42;10.40;99.90
47520;DHT22;33252;48.122;11.538;2023-04-24T09:38:08;10.50;99.90
47520;DHT22;33252;48.122;11.538;2023-04-24T09:40:35;10.30;99.90
47520;DHT22;33252;48.122;11.538;2023-04-24T09:43:02;10.40;99.90
47520;DHT22;33252;48.122;11.538;2023-04-24T09:45:34;10.40;99.90
47520;DHT22;33252;48.122;11.538;2023-04-24T09:48:00;10.50;99.90
47520;DHT22;33252;48.122;11.538;2023-04-24T09:50:26;10.70;99.90
47520;DHT22;33252;48.122;11.538;2023-04-24T09:53:01;10.80;99.90
47520;DHT22;33252;48.122;11.538;2023-04-24T09:55:27;11.20;99.90
47520;DHT22;33252;48.122;11.538;2023-04-24T09:57:58;11.40;99.90
47520;DHT22;33252;48.122;11.538;2023-04-24T10:00:32;11.20;99.70
47520;DHT22;33252;48.122;11.538;2023-04-24T10:03:05;10.90;99.90
47520;DHT22;33252;48.122;11.538;2023-04-24T10:05:35;11.20;99.90
47520;DHT22;33252;48.122;11.538;2023-04-24T10:08:13;11.50;99.90
47520;DHT22;33252;48.122;11.538;2023-04-24T10:10:43;11.40;99.90
47520;DHT22;33252;48.122;11.538;2023-04-24T10:13:10;11.40;99.90
47520;DHT22;33252;48.122;11.538;2023-04-24T10:15:40;11.30;99.90
47520;DHT22;33252;48.122;11.538;2023-04-24T10:18:07;11.60;99.70
47520;DHT22;33252;48.122;11.538;2023-04-24T10:20:36;11.50;99.50
47520;DHT22;33252;48.122;11.538;2023-04-24T10:23:02;11.50;99.40
47520;DHT22;33252;48.122;11.538;2023-04-24T10:25:33;11.60;99.30
47520;DHT22;33252;48.122;11.538;2023-04-24T10:28:00;11.40;98.60
47520;DHT22;33252;48.122;11.538;2023-04-24T10:30:28;11.70;98.70
47520;DHT22;33252;48.122;11.538;2023-04-24T10:32:54;11.70;98.20
47520;DHT22;33252;48.122;11.538;2023-04-24T10:35:20;11.70;98.00
47520;DHT22;33252;48.122;11.538;2023-04-24T10:38:09;11.60;98.60
47520;DHT22;33252;48.122;11.538;2023-04-24T10:40:36;11.60;98.40
47520;DHT22;33252;48.122;11.538;2023-04-24T10:43:03;11.50;98.10
47520;DHT22;33252;48.122;11.538;2023-04-24T10:45:31;11.50;98.60
47520;DHT22;33252;48.122;11.538;2023-04-24T10:48:02;11.60;98.60
47520;DHT22;33252;48.122;11.538;2023-04-24T10:50:43;11.40;99.00
47520;DHT22;33252;48.122;11.538;2023-04-24T10:53:29;11.40;99.90
47520;DHT22;33252;48.122;11.538;2023-04-24T10:56:16;10.10;99.90
47520;DHT22;33252;48.122;11.538;2023-04-24T10:58:43;9.30;99.90
47520;DHT22;33252;48.122;11.538;2023-04-24T11:01:24;9.00;99.90
47520;DHT22;33252;48.122;11.538;2023-04-24T11:03:56;9.00;99.90
47520;DHT22;33252;48.122;11.538;2023-04-24T11:06:36;9.30;99.90
47520;DHT22;33252;48.122;11.538;2023-04-24T11:09:09;9.60;99.90
47520;DHT22;33252;48.122;11.538;2023-04-24T11:11:38;9.60;99.90
47520;DHT22;33252;48.122;11.538;2023-04-24T11:14:10;9.80;99.90
47520;DHT22;33252;48.122;11.538;2023-04-24T11:21:44;10.60;99.90
47520;DHT22;33252;48.122;11.538;2023-04-24T11:29:49;11.30;99.90
47520;DHT22;33252;48.122;11.538;2023-04-24T11:32:22;11.40;99.90
47520;DHT22;33252;48.122;11.538;2023-04-24T11:34:49;11.60;99.90
47520;DHT22;33252;48.122;11.538;2023-04-24T11:37:15;11.90;99.90
47520;DHT22;33252;48.122;11.538;2023-04-24T11:39:41;11.60;99.90
47520;DHT22;33252;48.122;11.538;2023-04-24T11:42:08;11.70;99.90
47520;DHT22;33252;48.122;11.538;2023-04-24T11:44:34;12.00;99.90
47520;DHT22;33252;48.122;11.538;2023-04-24T11:47:04;12.20;99.90
47520;DHT22;33252;48.122;11.538;2023-04-24T11:49:30;11.80;99.90
47520;DHT22;33252;48.122;11.538;2023-04-24T11:51:55;11.90;99.90
47520;DHT22;33252;48.122;11.538;2023-04-24T11:54:21;11.80;99.90
47520;DHT22;33252;48.122;11.538;2023-04-24T11:56:48;11.50;99.20
47520;DHT22;33252;48.122;11.538;2023-04-24T11:59:14;11.50;99.30
47520;DHT22;33252;48.122;11.538;2023-04-24T12:01:46;11.60;98.70
47520;DHT22;33252;48.122;11.538;2023-04-24T12:04:13;11.60;98.30
47520;DHT22;33252;48.122;11.538;2023-04-24T12:06:39;11.60;98.00
47520;DHT22;33252;48.122;11.538;2023-04-24T12:09:05;11.80;97.60
47520;DHT22;33252;48.122;11.538;2023-04-24T12:11:31;12.20;97.90
47520;DHT22;33252;48.122;11.538;2023-04-24T12:13:57;12.10;96.90
47520;DHT22;33252;48.122;11.538;2023-04-24T12:16:26;12.00;96.60
47520;DHT22;33252;48.122;11.538;2023-04-24T12:18:52;11.70;97.10
47520;DHT22;33252;48.122;11.538;2023-04-24T12:21:22;12.00;96.00
47520;DHT22;33252;48.122;11.538;2023-04-24T12:23:48;11.90;96.20
47520;DHT22;33252;48.122;11.538;2023-04-24T12:26:18;11.90;96.10
47520;DHT22;33252;48.122;11.538;2023-04-24T12:28:47;12.00;95.70
47520;DHT22;33252;48.122;11.538;2023-04-24T12:31:13;12.10;95.40
47520;DHT22;33252;48.122;11.538;2023-04-24T12:33:39;12.50;95.10
47520;DHT22;33252;48.122;11.538;2023-04-24T12:36:05;12.80;94.20
47520;DHT22;33252;48.122;11.538;2023-04-24T12:38:31;12.60;93.50
47520;DHT22;33252;48.122;11.538;2023-04-24T12:41:13;12.60;93.60
47520;DHT22;33252;48.122;11.538;2023-04-24T12:43:51;13.00;93.40
47520;DHT22;33252;48.122;11.538;2023-04-24T12:46:16;13.00;92.20
47520;DHT22;33252;48.122;11.538;2023-04-24T12:48:42;12.90;91.30
47520;DHT22;33252;48.122;11.538;2023-04-24T12:51:08;13.00;91.10
47520;DHT22;33252;48.122;11.538;2023-04-24T12:53:33;13.10;90.70
47520;DHT22;33252;48.122;11.538;2023-04-24T12:55:59;13.40;90.70
47520;DHT22;33252;48.122;11.538;2023-04-24T12:58:24;13.30;89.20
47520;DHT22;33252;48.122;11.538;2023-04-24T13:00:50;13.30;90.20
47520;DHT22;33252;48.122;11.538;2023-04-24T13:03:17;13.20;93.50
47520;DHT22;33252;48.122;11.538;2023-04-24T13:05:43;13.50;93.70
47520;DHT22;33252;48.122;11.538;2023-04-24T13:08:09;13.60;92.40
47520;DHT22;33252;48.122;11.538;2023-04-24T13:10:35;13.60;93.10
47520;DHT22;33252;48.122;11.538;2023-04-24T13:13:01;13.70;93.70
47520;DHT22;33252;48.122;11.538;2023-04-24T13:15:27;13.50;92.90
47520;DHT22;33252;48.122;11.538;2023-04-24T13:17:52;13.00;93.70
47520;DHT22;33252;48.122;11.538;2023-04-24T13:20:18;12.60;93.10
47520;DHT22;33252;48.122;11.538;2023-04-24T13:22:44;12.60;93.80
47520;DHT22;33252;48.122;11.538;2023-04-24T13:25:09;12.70;93.20
47520;DHT22;33252;48.122;11.538;2023-04-24T13:27:37;12.60;92.80
47520;DHT22;33252;48.122;11.538;2023-04-24T13:30:03;12.60;92.00
47520;DHT22;33252;48.122;11.538;2023-04-24T13:32:29;13.40;91.90
47520;DHT22;33252;48.122;11.538;2023-04-24T13:34:55;15.10;87.10
47520;DHT22;33252;48.122;11.538;2023-04-24T13:37:21;15.80;83.60
47520;DHT22;33252;48.122;11.538;2023-04-24T13:39:48;14.30;87.80
47520;DHT22;33252;48.122;11.538;2023-04-24T13:42:13;13.50;89.70
47520;DHT22;33252;48.122;11.538;2023-04-24T13:44:40;13.70;89.50
47520;DHT22;33252;48.122;11.538;2023-04-24T13:47:05;13.40;88.10
47520;DHT22;33252;48.122;11.538;2023-04-24T13:49:31;13.10;89.00
47520;DHT22;33252;48.122;11.538;2023-04-24T13:51:57;13.20;89.20
47520;DHT22;33252;48.122;11.538;2023-04-24T13:54:23;14.30;86.00
47520;DHT22;33252;48.122;11.538;2023-04-24T13:56:51;13.80;87.50
47520;DHT22;33252;48.122;11.538;2023-04-24T13:59:17;13.50;89.50
47520;DHT22;33252;48.122;11.538;2023-04-24T14:01:42;13.20;89.60
47520;DHT22;33252;48.122;11.538;2023-04-24T14:04:10;12.80;90.50
47520;DHT22;33252;48.122;11.538;2023-04-24T14:06:36;12.60;91.10
47520;DHT22;33252;48.122;11.538;2023-04-24T14:09:02;13.20;91.60
47520;DHT22;33252;48.122;11.538;2023-04-24T14:11:28;14.20;89.60
47520;DHT22;33252;48.122;11.538;2023-04-24T14:13:54;13.50;89.20
47520;DHT22;33252;48.122;11.538;2023-04-24T14:16:22;13.30;89.40
47520;DHT22;33252;48.122;11.538;2023-04-24T14:18:47;13.50;87.30
47520;DHT22;33252;48.122;11.538;2023-04-24T14:21:13;13.50;89.40
47520;DHT22;33252;48.122;11.538;2023-04-24T14:23:39;15.60;81.60
47520;DHT22;33252;48.122;11.538;2023-04-24T14:26:04;15.10;82.00
47520;DHT22;33252;48.122;11.538;2023-04-24T14:28:30;16.00;78.80
47520;DHT22;33252;48.122;11.538;2023-04-24T14:30:56;16.60;78.90
47520;DHT22;33252;48.122;11.538;2023-04-24T14:33:21;17.30;76.30
47520;DHT22;33252;48.122;11.538;2023-04-24T14:35:47;15.70;79.00
47520;DHT22;33252;48.122;11.538;2023-04-24T14:38:13;14.60;80.90
47520;DHT22;33252;48.122;11.538;2023-04-24T14:40:39;15.00;81.50
47520;DHT22;33252;48.122;11.538;2023-04-24T14:43:05;14.80;81.10
47520;DHT22;33252;48.122;11.538;2023-04-24T14:45:31;14.40;82.70
47520;DHT22;33252;48.122;11.538;2023-04-24T14:47:57;14.30;83.20
47520;DHT22;33252;48.122;11.538;2023-04-24T14:50:23;14.30;82.50
47520;DHT22;33252;48.122;11.538;2023-04-24T14:52:49;14.10;80.90
47520;DHT22;33252;48.122;11.538;2023-04-24T14:55:15;13.80;81.70
47520;DHT22;33252;48.122;11.538;2023-04-24T14:57:40;13.80;83.40
47520;DHT22;33252;48.122;11.538;2023-04-24T15:00:07;14.30;80.60
47520;DHT22;33252;48.122;11.538;2023-04-24T15:02:35;14.40;79.30
47520;DHT22;33252;48.122;11.538;2023-04-24T15:05:05;14.20;78.80
47520;DHT22;33252;48.122;11.538;2023-04-24T15:07:31;14.60;77.30
47520;DHT22;33252;48.122;11.538;2023-04-24T15:09:58;14.10;79.50
47520;DHT22;33252;48.122;11.538;2023-04-24T15:12:24;13.60;80.30
47520;DHT22;33252;48.122;11.538;2023-04-24T15:14:50;13.40;80.30
47520;DHT22;33252;48.122;11.538;2023-04-24T15:17:15;13.60;80.90
47520;DHT22;33252;48.122;11.538;2023-04-24T15:19:41;13.60;81.00
47520;DHT22;33252;48.122;11.538;2023-04-24T15:22:07;13.60;80.30
47520;DHT22;33252;48.122;11.538;2023-04-24T15:24:32;13.70;79.30
47520;DHT22;33252;48.122;11.538;2023-04-24T15:26:59;14.10;79.10
47520;DHT22;33252;48.122;11.538;2023-04-24T15:29:25;14.40;77.20